createdAt,value
2023-03-12T00:01:44.878Z,5.47
2023-03-12T00:12:08.792Z,7.23
2023-03-12T00:22:42.882Z,6.07
2023-03-12T00:28:02.369Z,5.83
2023-03-12T00:33:32.441Z,6.73
2023-03-12T00:38:41.685Z,6.43
2023-03-12T00:43:48.929Z,6.30
2023-03-12T00:48:57.390Z,6.37
2023-03-12T00:59:35.245Z,5.83
2023-03-12T01:04:48.643Z,6.80
2023-03-12T01:09:58.779Z,6.10
2023-03-12T01:15:21.348Z,6.23
2023-03-12T01:25:51.592Z,6.00
2023-03-12T01:31:42.561Z,6.20
2023-03-12T01:36:50.974Z,6.07
2023-03-12T01:41:56.864Z,6.67
2023-03-12T01:47:01.755Z,6.77
2023-03-12T01:52:08.696Z,6.83
2023-03-12T01:57:27.788Z,6.63
2023-03-12T02:02:43.385Z,6.13
2023-03-12T02:13:09.446Z,7.03
2023-03-12T02:18:36.432Z,6.80
2023-03-12T02:24:08.270Z,5.33
2023-03-12T02:29:19.416Z,5.60
2023-03-12T02:34:30.707Z,6.30
2023-03-12T02:39:34.191Z,6.13
2023-03-12T02:44:39.579Z,6.10
2023-03-12T02:49:44.073Z,5.77
2023-03-12T02:54:50.700Z,5.93
2023-03-12T03:00:06.372Z,8.80
2023-03-12T03:05:21.802Z,6.17
2023-03-12T03:10:29.121Z,6.43
2023-03-12T03:15:31.829Z,5.83
2023-03-12T03:21:20.703Z,6.77
2023-03-12T03:26:34.534Z,6.20
2023-03-12T03:37:07.785Z,5.57
2023-03-12T03:42:32.407Z,5.60
2023-03-12T03:47:38.227Z,5.73
2023-03-12T03:52:46.036Z,5.90
2023-03-12T03:57:58.678Z,5.90
2023-03-12T04:09:25.905Z,5.80
2023-03-12T04:14:47.232Z,6.60
2023-03-12T04:19:52.538Z,6.23
2023-03-12T04:24:57.122Z,6.13
2023-03-12T04:30:05.692Z,6.50
2023-03-12T04:35:12.794Z,6.00
2023-03-12T04:40:26.041Z,5.87
2023-03-12T04:45:39.141Z,6.10
2023-03-12T04:50:46.891Z,6.20
2023-03-12T04:56:03.978Z,5.63
2023-03-12T05:01:13.889Z,5.40
2023-03-12T05:06:42.510Z,5.13
2023-03-12T05:11:45.938Z,5.40
2023-03-12T05:17:15.749Z,4.70
2023-03-12T05:22:34.234Z,4.63
2023-03-12T05:27:42.739Z,4.77
2023-03-12T05:33:01.809Z,4.90
2023-03-12T05:38:11.821Z,4.97
2023-03-12T05:43:16.137Z,4.67
2023-03-12T05:48:26.573Z,5.13
2023-03-12T05:53:28.533Z,5.67
2023-03-12T05:58:40.914Z,4.03
2023-03-12T06:03:57.101Z,4.57
2023-03-12T06:09:04.840Z,4.23
2023-03-12T06:19:35.605Z,3.50
2023-03-12T06:24:52.038Z,4.17
2023-03-12T06:29:59.595Z,4.97
2023-03-12T06:35:24.944Z,3.67
2023-03-12T06:40:30.626Z,3.33
2023-03-12T06:45:46.669Z,3.43
2023-03-12T06:50:54.005Z,3.10
2023-03-12T06:56:00.568Z,3.17
2023-03-12T07:06:21.651Z,2.67
2023-03-12T07:11:35.558Z,2.87
2023-03-12T07:16:43.758Z,3.37
2023-03-12T07:21:53.129Z,2.50
2023-03-12T07:26:59.933Z,3.40
2023-03-12T07:32:13.034Z,2.50
2023-03-12T07:37:25.605Z,2.77
2023-03-12T07:42:38.154Z,2.37
2023-03-12T07:47:42.618Z,3.10
2023-03-12T07:52:48.111Z,3.33
2023-03-12T07:58:18.217Z,2.10
2023-03-12T08:03:26.551Z,2.53
2023-03-12T08:08:33.496Z,2.20
2023-03-12T08:13:46.594Z,2.07
2023-03-12T08:19:14.701Z,1.63
2023-03-12T08:24:43.118Z,1.73
2023-03-12T08:29:50.053Z,1.97
2023-03-12T08:34:55.400Z,2.10
2023-03-12T08:40:22.459Z,1.93
2023-03-12T08:45:29.065Z,1.90
2023-03-12T08:50:40.602Z,1.60
2023-03-12T08:56:06.695Z,2.07
2023-03-12T09:01:17.662Z,2.07
2023-03-12T09:06:32.911Z,2.70
2023-03-12T09:11:45.739Z,3.20
2023-03-12T09:16:54.350Z,2.53
2023-03-12T09:22:05.550Z,3.60
2023-03-12T09:27:13.004Z,2.80
2023-03-12T09:32:19.567Z,2.60
2023-03-12T09:37:28.834Z,3.60
2023-03-12T09:42:58.372Z,4.20
2023-03-12T09:48:04.961Z,2.53
2023-03-12T09:53:20.909Z,3.53
2023-03-12T09:58:40.237Z,3.87
2023-03-12T10:03:50.516Z,3.70
2023-03-12T10:09:09.362Z,3.73
2023-03-12T10:15:16.709Z,4.13
2023-03-12T10:20:47.213Z,4.20
2023-03-12T10:26:09.056Z,4.03
2023-03-12T10:31:53.148Z,4.80
2023-03-12T10:37:27.556Z,4.87
2023-03-12T10:48:15.920Z,5.20
2023-03-12T11:10:41.588Z,5.43
2023-03-12T11:28:14.463Z,5.73
2023-03-12T11:33:21.279Z,8.40
2023-03-12T11:57:24.627Z,7.60
2023-03-12T12:03:38.936Z,8.33
2023-03-12T12:34:31.899Z,9.63
2023-03-12T12:52:33.154Z,14.03
2023-03-12T12:58:18.741Z,14.53
2023-03-12T13:03:41.333Z,14.97
2023-03-12T13:09:46.926Z,15.90
2023-03-12T13:15:13.557Z,18.43
2023-03-12T13:22:18.301Z,19.00
2023-03-12T13:39:56.415Z,23.47
2023-03-12T14:50:54.431Z,22.83
2023-03-12T15:15:03.585Z,21.87
2023-03-12T15:26:46.240Z,20.30
2023-03-12T15:38:12.105Z,25.80
2023-03-12T15:54:48.954Z,19.07
2023-03-12T16:00:33.599Z,18.17
2023-03-12T16:06:14.056Z,19.67
2023-03-12T16:11:31.741Z,21.63
2023-03-12T16:23:55.706Z,22.33
2023-03-12T16:28:29.460Z,21.90
2023-03-12T16:52:00.771Z,25.20
2023-03-12T16:57:35.431Z,26.33
2023-03-12T17:03:00.745Z,25.67
2023-03-12T17:08:12.036Z,26.50
2023-03-12T17:31:46.506Z,26.73
2023-03-12T17:37:07.241Z,23.93
2023-03-12T17:42:42.491Z,24.10
2023-03-12T17:54:30.919Z,20.27
2023-03-12T18:05:22.605Z,16.40
2023-03-12T18:10:30.341Z,18.30
2023-03-12T18:16:03.381Z,18.43
2023-03-12T18:21:21.969Z,21.10
2023-03-12T18:26:35.493Z,19.60
2023-03-12T18:31:49.765Z,18.93
2023-03-12T18:37:05.027Z,19.80
2023-03-12T18:42:54.692Z,19.17
2023-03-12T18:48:01.908Z,18.30
2023-03-12T18:53:09.848Z,14.87
2023-03-12T19:03:54.563Z,8.70
2023-03-12T19:20:02.621Z,7.57
2023-03-12T19:25:23.536Z,6.13
2023-03-12T19:36:31.043Z,8.13
2023-03-12T19:41:39.207Z,5.60
2023-03-12T19:47:00.864Z,6.00
2023-03-12T19:52:43.280Z,8.37
2023-03-12T19:57:58.029Z,6.10
2023-03-12T20:03:28.386Z,9.93
2023-03-12T20:08:45.920Z,6.70
2023-03-12T20:20:04.474Z,6.47
2023-03-12T20:25:16.414Z,5.63
2023-03-12T20:30:37.536Z,6.37
2023-03-12T20:35:48.649Z,5.50
2023-03-12T20:41:12.305Z,9.83
2023-03-12T20:46:55.306Z,7.20
2023-03-12T20:52:17.146Z,6.70
2023-03-12T21:09:30.390Z,5.80
2023-03-12T21:20:26.707Z,7.00
2023-03-12T21:25:49.312Z,4.97
2023-03-12T21:31:15.956Z,6.63
2023-03-12T21:42:33.358Z,5.43
2023-03-12T21:53:22.708Z,26.80
2023-03-12T21:58:36.869Z,9.10
2023-03-12T22:04:12.920Z,6.33
2023-03-12T22:09:28.568Z,6.40
2023-03-12T22:14:30.409Z,6.33
2023-03-12T22:19:53.711Z,4.57
2023-03-12T22:35:53.350Z,6.83
2023-03-12T22:41:13.210Z,5.37
2023-03-12T22:46:16.671Z,7.67
2023-03-12T22:51:50.050Z,5.23
2023-03-12T22:57:03.204Z,5.23
2023-03-12T23:08:15.229Z,5.90
2023-03-12T23:13:30.935Z,5.07
2023-03-12T23:18:48.113Z,5.17
2023-03-12T23:24:16.342Z,6.37
2023-03-12T23:29:45.889Z,5.50
2023-03-12T23:35:01.775Z,4.03
2023-03-12T23:40:14.679Z,5.27
2023-03-12T23:45:33.837Z,4.60
2023-03-12T23:50:43.171Z,4.60
2023-03-12T23:56:38.603Z,3.97
